Weather at Mitek Airport

Public forecast

Using degrees Fahrenheit for public forecast. Weather courtesy of forecast.io.

Closest aviation weather report (METAR) to Mitek Airport

Closest report is Monroe Municipal Airport, 11.4 nm (21.1 km) NE. Retrieved 2021/06/13 10:35 UTC (0 seconds ago):

KEFT 131035Z AUTO 34008KT 10SM CLR 18/09 A3000 RMK AO2 T01840085

Closest aviation forecast (TAF) to Mitek Airport

Closest forecast is Southern Wisconsin Regional Airport, 34.0 nm (63.0 km) ENE. Retrieved 2021/06/13 06:22 UTC (4 hours ago):

TAF KJVL 130520Z 1306/1406 34003KT P6SM SKC FM131400 33007KT P6SM SKC FM132200 30006KT P6SM FEW250 FM140100 23005KT P6SM SKC